Terminal Aerodrome Forecast
Issued by NWS Twin Cities, MN

Home | Current Version | Previous Version | Text Only | Print | Product List | Glossary Off
Versions: 1 2 3 4 5 6 7 8 9 10 11 12 13 14 15 16 17 18 19 20 21

000
FTUS43 KMPX 191900 AAB
TAFSTC
TAF AMD
KSTC 191931Z 1920/2018 18012KT 3SM -SHRA BR BKN007 OVC012
     FM192100 20011KT P6SM BKN015
     FM200000 21010KT P6SM SCT025 BKN150
     FM200600 28008KT P6SM SKC
     FM201500 30010KT P6SM FEW250=

USA.gov is the U.S. government's official web portal to all federal, state and local government web resources and services.